sensor_id;sensor_type;location;lat;lon;timestamp;P1;durP1;ratioP1;P2;durP2;ratioP2
52730;SDS011;38624;53.242;6.974;2022-09-27T00:00:23;7.45;;;1.00;;
52730;SDS011;38624;53.242;6.974;2022-09-27T00:02:49;7.50;;;1.10;;
52730;SDS011;38624;53.242;6.974;2022-09-27T00:05:15;6.82;;;1.00;;
52730;SDS011;38624;53.242;6.974;2022-09-27T00:07:42;11.13;;;1.40;;
52730;SDS011;38624;53.242;6.974;2022-09-27T00:10:08;7.60;;;0.98;;
52730;SDS011;38624;53.242;6.974;2022-09-27T00:12:34;9.25;;;1.00;;
52730;SDS011;38624;53.242;6.974;2022-09-27T00:15:00;3.92;;;0.80;;
52730;SDS011;38624;53.242;6.974;2022-09-27T00:20:18;3.90;;;0.80;;
52730;SDS011;38624;53.242;6.974;2022-09-27T00:22:45;4.05;;;0.88;;
52730;SDS011;38624;53.242;6.974;2022-09-27T00:25:12;3.75;;;1.00;;
52730;SDS011;38624;53.242;6.974;2022-09-27T00:27:38;4.57;;;1.08;;
52730;SDS011;38624;53.242;6.974;2022-09-27T00:30:04;9.57;;;1.10;;
52730;SDS011;38624;53.242;6.974;2022-09-27T00:32:30;5.73;;;1.30;;
52730;SDS011;38624;53.242;6.974;2022-09-27T00:34:56;5.07;;;0.77;;
52730;SDS011;38624;53.242;6.974;2022-09-27T00:37:21;4.53;;;0.98;;
52730;SDS011;38624;53.242;6.974;2022-09-27T00:39:47;3.97;;;0.90;;
52730;SDS011;38624;53.242;6.974;2022-09-27T00:42:13;3.15;;;0.63;;
52730;SDS011;38624;53.242;6.974;2022-09-27T00:49:48;4.07;;;0.80;;
52730;SDS011;38624;53.242;6.974;2022-09-27T00:55:32;2.15;;;0.90;;
52730;SDS011;38624;53.242;6.974;2022-09-27T00:58:02;6.07;;;0.88;;
52730;SDS011;38624;53.242;6.974;2022-09-27T01:00:30;5.72;;;1.02;;
52730;SDS011;38624;53.242;6.974;2022-09-27T01:02:56;3.85;;;0.82;;
52730;SDS011;38624;53.242;6.974;2022-09-27T01:05:24;4.60;;;0.85;;
52730;SDS011;38624;53.242;6.974;2022-09-27T01:07:52;6.35;;;0.90;;
52730;SDS011;38624;53.242;6.974;2022-09-27T01:10:23;3.55;;;0.60;;
52730;SDS011;38624;53.242;6.974;2022-09-27T01:12:59;5.05;;;0.80;;
52730;SDS011;38624;53.242;6.974;2022-09-27T01:15:36;5.75;;;0.80;;
52730;SDS011;38624;53.242;6.974;2022-09-27T01:18:36;4.68;;;0.90;;
52730;SDS011;38624;53.242;6.974;2022-09-27T01:33:21;2.97;;;0.82;;
52730;SDS011;38624;53.242;6.974;2022-09-27T01:35:41;4.80;;;1.02;;
52730;SDS011;38624;53.242;6.974;2022-09-27T01:38:33;3.45;;;0.82;;
52730;SDS011;38624;53.242;6.974;2022-09-27T01:41:07;4.47;;;1.00;;
52730;SDS011;38624;53.242;6.974;2022-09-27T01:46:54;4.10;;;0.88;;
52730;SDS011;38624;53.242;6.974;2022-09-27T01:49:14;5.57;;;0.80;;
52730;SDS011;38624;53.242;6.974;2022-09-27T01:51:47;2.92;;;0.90;;
52730;SDS011;38624;53.242;6.974;2022-09-27T01:54:21;3.58;;;0.70;;
52730;SDS011;38624;53.242;6.974;2022-09-27T01:56:51;3.03;;;0.80;;
52730;SDS011;38624;53.242;6.974;2022-09-27T01:59:21;5.30;;;0.70;;
52730;SDS011;38624;53.242;6.974;2022-09-27T02:01:53;6.53;;;1.00;;
52730;SDS011;38624;53.242;6.974;2022-09-27T02:04:25;3.38;;;0.73;;
52730;SDS011;38624;53.242;6.974;2022-09-27T02:06:56;3.15;;;0.70;;
52730;SDS011;38624;53.242;6.974;2022-09-27T02:09:34;3.00;;;0.80;;
52730;SDS011;38624;53.242;6.974;2022-09-27T02:12:10;3.17;;;0.77;;
52730;SDS011;38624;53.242;6.974;2022-09-27T02:14:40;8.25;;;1.10;;
52730;SDS011;38624;53.242;6.974;2022-09-27T02:25:40;4.72;;;1.27;;
52730;SDS011;38624;53.242;6.974;2022-09-27T02:28:37;7.60;;;1.20;;
52730;SDS011;38624;53.242;6.974;2022-09-27T02:31:14;4.63;;;0.90;;
52730;SDS011;38624;53.242;6.974;2022-09-27T02:33:44;4.00;;;1.05;;
52730;SDS011;38624;53.242;6.974;2022-09-27T02:36:13;3.53;;;1.13;;
52730;SDS011;38624;53.242;6.974;2022-09-27T02:38:39;4.70;;;1.10;;
52730;SDS011;38624;53.242;6.974;2022-09-27T02:41:40;3.92;;;0.80;;
52730;SDS011;38624;53.242;6.974;2022-09-27T02:44:03;5.00;;;0.90;;
52730;SDS011;38624;53.242;6.974;2022-09-27T02:46:46;3.30;;;0.80;;
52730;SDS011;38624;53.242;6.974;2022-09-27T02:52:36;3.28;;;0.93;;
52730;SDS011;38624;53.242;6.974;2022-09-27T02:55:40;5.65;;;0.95;;
52730;SDS011;38624;53.242;6.974;2022-09-27T02:58:26;6.65;;;1.10;;
52730;SDS011;38624;53.242;6.974;2022-09-27T03:01:12;7.15;;;0.95;;
52730;SDS011;38624;53.242;6.974;2022-09-27T03:03:46;5.45;;;1.13;;
52730;SDS011;38624;53.242;6.974;2022-09-27T03:06:17;4.70;;;0.80;;
52730;SDS011;38624;53.242;6.974;2022-09-27T03:08:46;8.73;;;1.00;;
52730;SDS011;38624;53.242;6.974;2022-09-27T03:11:13;3.13;;;0.93;;
52730;SDS011;38624;53.242;6.974;2022-09-27T03:13:38;6.65;;;1.17;;
52730;SDS011;38624;53.242;6.974;2022-09-27T03:16:05;5.80;;;1.05;;
52730;SDS011;38624;53.242;6.974;2022-09-27T03:18:31;7.28;;;1.00;;
52730;SDS011;38624;53.242;6.974;2022-09-27T03:20:57;4.20;;;1.05;;
52730;SDS011;38624;53.242;6.974;2022-09-27T03:23:23;4.40;;;0.90;;
52730;SDS011;38624;53.242;6.974;2022-09-27T03:25:49;7.05;;;1.30;;
52730;SDS011;38624;53.242;6.974;2022-09-27T03:28:15;4.93;;;1.15;;
52730;SDS011;38624;53.242;6.974;2022-09-27T03:30:43;7.33;;;1.10;;
52730;SDS011;38624;53.242;6.974;2022-09-27T03:33:09;5.75;;;0.90;;
52730;SDS011;38624;53.242;6.974;2022-09-27T03:35:35;3.40;;;0.82;;
52730;SDS011;38624;53.242;6.974;2022-09-27T03:38:01;6.30;;;1.08;;
52730;SDS011;38624;53.242;6.974;2022-09-27T03:40:28;6.55;;;1.10;;
52730;SDS011;38624;53.242;6.974;2022-09-27T03:42:53;4.00;;;0.90;;
52730;SDS011;38624;53.242;6.974;2022-09-27T03:45:19;2.42;;;1.00;;
52730;SDS011;38624;53.242;6.974;2022-09-27T03:47:45;4.28;;;0.90;;
52730;SDS011;38624;53.242;6.974;2022-09-27T03:50:12;4.80;;;0.90;;
52730;SDS011;38624;53.242;6.974;2022-09-27T03:52:39;3.80;;;1.15;;
52730;SDS011;38624;53.242;6.974;2022-09-27T03:55:06;4.13;;;0.88;;
52730;SDS011;38624;53.242;6.974;2022-09-27T03:57:32;5.40;;;1.05;;
52730;SDS011;38624;53.242;6.974;2022-09-27T03:59:58;4.35;;;0.90;;
52730;SDS011;38624;53.242;6.974;2022-09-27T04:02:25;3.75;;;0.90;;
52730;SDS011;38624;53.242;6.974;2022-09-27T04:04:51;7.00;;;0.98;;
52730;SDS011;38624;53.242;6.974;2022-09-27T04:07:17;6.22;;;1.27;;
52730;SDS011;38624;53.242;6.974;2022-09-27T04:09:43;4.78;;;1.10;;
52730;SDS011;38624;53.242;6.974;2022-09-27T04:12:11;4.53;;;0.98;;
52730;SDS011;38624;53.242;6.974;2022-09-27T04:14:37;3.77;;;1.20;;
52730;SDS011;38624;53.242;6.974;2022-09-27T04:17:02;3.35;;;0.80;;
52730;SDS011;38624;53.242;6.974;2022-09-27T04:19:28;3.33;;;0.70;;
52730;SDS011;38624;53.242;6.974;2022-09-27T04:21:54;5.53;;;0.82;;
52730;SDS011;38624;53.242;6.974;2022-09-27T04:24:19;9.05;;;1.20;;
52730;SDS011;38624;53.242;6.974;2022-09-27T04:26:45;5.97;;;0.90;;
52730;SDS011;38624;53.242;6.974;2022-09-27T04:29:11;6.95;;;1.05;;
52730;SDS011;38624;53.242;6.974;2022-09-27T04:31:37;7.07;;;0.90;;
52730;SDS011;38624;53.242;6.974;2022-09-27T04:34:03;5.28;;;1.05;;
52730;SDS011;38624;53.242;6.974;2022-09-27T04:36:29;2.95;;;0.75;;
52730;SDS011;38624;53.242;6.974;2022-09-27T04:38:56;4.05;;;0.90;;
52730;SDS011;38624;53.242;6.974;2022-09-27T04:41:23;5.65;;;1.00;;
52730;SDS011;38624;53.242;6.974;2022-09-27T04:43:50;6.55;;;0.85;;
52730;SDS011;38624;53.242;6.974;2022-09-27T04:46:17;4.22;;;1.05;;
52730;SDS011;38624;53.242;6.974;2022-09-27T04:48:43;5.45;;;0.95;;
52730;SDS011;38624;53.242;6.974;2022-09-27T04:51:08;2.72;;;0.80;;
52730;SDS011;38624;53.242;6.974;2022-09-27T04:53:35;4.32;;;0.98;;
52730;SDS011;38624;53.242;6.974;2022-09-27T04:56:01;5.03;;;1.20;;
52730;SDS011;38624;53.242;6.974;2022-09-27T04:58:30;2.85;;;0.90;;
52730;SDS011;38624;53.242;6.974;2022-09-27T05:00:57;3.67;;;0.85;;
52730;SDS011;38624;53.242;6.974;2022-09-27T05:03:23;6.82;;;1.35;;
52730;SDS011;38624;53.242;6.974;2022-09-27T05:05:49;3.42;;;1.08;;
52730;SDS011;38624;53.242;6.974;2022-09-27T05:08:15;2.80;;;0.93;;
52730;SDS011;38624;53.242;6.974;2022-09-27T05:10:40;7.90;;;1.20;;
52730;SDS011;38624;53.242;6.974;2022-09-27T05:13:06;8.25;;;0.90;;
52730;SDS011;38624;53.242;6.974;2022-09-27T05:15:32;8.60;;;1.40;;
52730;SDS011;38624;53.242;6.974;2022-09-27T05:17:58;5.82;;;1.08;;
52730;SDS011;38624;53.242;6.974;2022-09-27T05:20:24;5.15;;;0.90;;
52730;SDS011;38624;53.242;6.974;2022-09-27T05:22:50;6.00;;;0.88;;
52730;SDS011;38624;53.242;6.974;2022-09-27T05:25:16;6.50;;;1.05;;
52730;SDS011;38624;53.242;6.974;2022-09-27T05:27:42;7.03;;;1.10;;
52730;SDS011;38624;53.242;6.974;2022-09-27T05:30:08;5.88;;;1.10;;
52730;SDS011;38624;53.242;6.974;2022-09-27T05:32:35;3.75;;;1.00;;
52730;SDS011;38624;53.242;6.974;2022-09-27T05:35:05;8.73;;;0.93;;
52730;SDS011;38624;53.242;6.974;2022-09-27T05:37:31;7.85;;;0.95;;
52730;SDS011;38624;53.242;6.974;2022-09-27T05:39:58;5.10;;;1.03;;
52730;SDS011;38624;53.242;6.974;2022-09-27T05:42:23;5.45;;;1.00;;
52730;SDS011;38624;53.242;6.974;2022-09-27T05:44:49;3.63;;;0.93;;
52730;SDS011;38624;53.242;6.974;2022-09-27T05:47:15;8.48;;;0.90;;
52730;SDS011;38624;53.242;6.974;2022-09-27T05:49:40;5.63;;;1.15;;
52730;SDS011;38624;53.242;6.974;2022-09-27T05:52:06;5.05;;;0.80;;
52730;SDS011;38624;53.242;6.974;2022-09-27T05:54:32;3.47;;;0.80;;
52730;SDS011;38624;53.242;6.974;2022-09-27T05:56:58;2.63;;;0.90;;
52730;SDS011;38624;53.242;6.974;2022-09-27T05:59:24;4.05;;;0.82;;
52730;SDS011;38624;53.242;6.974;2022-09-27T06:01:51;4.63;;;0.80;;
52730;SDS011;38624;53.242;6.974;2022-09-27T06:04:17;4.70;;;0.82;;
52730;SDS011;38624;53.242;6.974;2022-09-27T06:06:43;3.70;;;1.10;;
52730;SDS011;38624;53.242;6.974;2022-09-27T06:09:13;4.57;;;0.77;;
52730;SDS011;38624;53.242;6.974;2022-09-27T06:11:40;2.80;;;0.82;;
52730;SDS011;38624;53.242;6.974;2022-09-27T06:14:09;3.03;;;0.80;;
52730;SDS011;38624;53.242;6.974;2022-09-27T06:16:38;3.83;;;0.80;;
52730;SDS011;38624;53.242;6.974;2022-09-27T06:19:04;6.13;;;0.90;;
52730;SDS011;38624;53.242;6.974;2022-09-27T06:21:30;2.05;;;0.88;;
52730;SDS011;38624;53.242;6.974;2022-09-27T06:23:56;4.75;;;0.80;;
52730;SDS011;38624;53.242;6.974;2022-09-27T06:26:24;2.92;;;0.73;;
52730;SDS011;38624;53.242;6.974;2022-09-27T06:28:53;1.58;;;0.55;;
52730;SDS011;38624;53.242;6.974;2022-09-27T06:31:19;1.97;;;0.70;;
52730;SDS011;38624;53.242;6.974;2022-09-27T06:33:46;1.80;;;0.70;;
52730;SDS011;38624;53.242;6.974;2022-09-27T06:36:13;3.72;;;0.80;;
52730;SDS011;38624;53.242;6.974;2022-09-27T06:38:39;1.75;;;0.70;;
52730;SDS011;38624;53.242;6.974;2022-09-27T06:41:05;4.05;;;0.90;;
52730;SDS011;38624;53.242;6.974;2022-09-27T06:43:31;4.15;;;0.75;;
52730;SDS011;38624;53.242;6.974;2022-09-27T06:48:28;3.58;;;0.73;;
52730;SDS011;38624;53.242;6.974;2022-09-27T06:50:55;4.93;;;0.85;;
52730;SDS011;38624;53.242;6.974;2022-09-27T06:53:22;6.47;;;0.95;;
52730;SDS011;38624;53.242;6.974;2022-09-27T06:55:48;7.57;;;0.93;;
52730;SDS011;38624;53.242;6.974;2022-09-27T06:58:15;3.95;;;0.75;;
52730;SDS011;38624;53.242;6.974;2022-09-27T07:01:01;2.45;;;0.80;;
52730;SDS011;38624;53.242;6.974;2022-09-27T07:03:27;2.47;;;0.52;;
52730;SDS011;38624;53.242;6.974;2022-09-27T07:06:05;5.00;;;0.80;;
52730;SDS011;38624;53.242;6.974;2022-09-27T07:08:42;4.70;;;0.88;;
52730;SDS011;38624;53.242;6.974;2022-09-27T07:11:07;3.33;;;0.77;;
52730;SDS011;38624;53.242;6.974;2022-09-27T07:13:33;3.78;;;0.82;;
52730;SDS011;38624;53.242;6.974;2022-09-27T07:16:04;3.78;;;0.80;;
52730;SDS011;38624;53.242;6.974;2022-09-27T07:18:30;3.05;;;0.73;;
52730;SDS011;38624;53.242;6.974;2022-09-27T07:20:57;2.85;;;0.93;;
52730;SDS011;38624;53.242;6.974;2022-09-27T07:23:23;4.30;;;0.95;;
52730;SDS011;38624;53.242;6.974;2022-09-27T07:25:50;4.57;;;0.80;;
52730;SDS011;38624;53.242;6.974;2022-09-27T07:28:16;2.70;;;0.80;;
52730;SDS011;38624;53.242;6.974;2022-09-27T07:30:43;3.60;;;0.85;;
52730;SDS011;38624;53.242;6.974;2022-09-27T07:33:09;3.80;;;0.95;;
52730;SDS011;38624;53.242;6.974;2022-09-27T07:35:39;3.22;;;0.90;;
52730;SDS011;38624;53.242;6.974;2022-09-27T07:38:06;6.13;;;1.10;;
52730;SDS011;38624;53.242;6.974;2022-09-27T07:40:35;4.93;;;1.00;;
52730;SDS011;38624;53.242;6.974;2022-09-27T07:45:28;3.83;;;1.00;;
52730;SDS011;38624;53.242;6.974;2022-09-27T07:47:54;3.40;;;0.88;;
52730;SDS011;38624;53.242;6.974;2022-09-27T07:50:20;3.85;;;0.88;;
52730;SDS011;38624;53.242;6.974;2022-09-27T07:52:46;5.70;;;1.00;;
52730;SDS011;38624;53.242;6.974;2022-09-27T07:55:16;4.72;;;0.90;;
52730;SDS011;38624;53.242;6.974;2022-09-27T07:57:43;6.03;;;0.98;;
52730;SDS011;38624;53.242;6.974;2022-09-27T08:00:11;5.35;;;0.90;;
52730;SDS011;38624;53.242;6.974;2022-09-27T08:02:39;6.75;;;0.95;;
52730;SDS011;38624;53.242;6.974;2022-09-27T08:05:06;4.60;;;0.90;;
52730;SDS011;38624;53.242;6.974;2022-09-27T08:07:32;4.38;;;1.13;;
52730;SDS011;38624;53.242;6.974;2022-09-27T08:09:58;7.72;;;1.00;;
52730;SDS011;38624;53.242;6.974;2022-09-27T08:12:23;9.88;;;1.05;;
52730;SDS011;38624;53.242;6.974;2022-09-27T08:14:49;3.55;;;0.70;;
52730;SDS011;38624;53.242;6.974;2022-09-27T08:17:16;2.72;;;0.80;;
52730;SDS011;38624;53.242;6.974;2022-09-27T08:19:42;4.10;;;1.10;;
52730;SDS011;38624;53.242;6.974;2022-09-27T08:22:09;7.63;;;1.50;;
52730;SDS011;38624;53.242;6.974;2022-09-27T08:24:36;4.18;;;1.20;;
52730;SDS011;38624;53.242;6.974;2022-09-27T08:27:02;2.47;;;1.00;;
52730;SDS011;38624;53.242;6.974;2022-09-27T08:29:29;4.85;;;1.30;;
52730;SDS011;38624;53.242;6.974;2022-09-27T08:31:55;5.90;;;1.35;;
52730;SDS011;38624;53.242;6.974;2022-09-27T08:34:21;7.28;;;1.60;;
52730;SDS011;38624;53.242;6.974;2022-09-27T08:36:47;7.25;;;1.27;;
52730;SDS011;38624;53.242;6.974;2022-09-27T08:39:13;4.75;;;1.40;;
52730;SDS011;38624;53.242;6.974;2022-09-27T08:47:22;4.75;;;1.02;;
52730;SDS011;38624;53.242;6.974;2022-09-27T08:49:53;5.40;;;1.13;;
52730;SDS011;38624;53.242;6.974;2022-09-27T08:58:32;5.10;;;1.00;;
52730;SDS011;38624;53.242;6.974;2022-09-27T09:01:10;5.60;;;1.23;;
52730;SDS011;38624;53.242;6.974;2022-09-27T09:03:45;4.65;;;1.10;;
52730;SDS011;38624;53.242;6.974;2022-09-27T09:18:00;3.78;;;0.85;;
52730;SDS011;38624;53.242;6.974;2022-09-27T09:26:39;2.60;;;0.70;;
52730;SDS011;38624;53.242;6.974;2022-09-27T09:34:45;3.90;;;0.85;;
52730;SDS011;38624;53.242;6.974;2022-09-27T09:39:58;3.67;;;0.95;;
52730;SDS011;38624;53.242;6.974;2022-09-27T09:45:37;1.33;;;0.90;;
52730;SDS011;38624;53.242;6.974;2022-09-27T09:50:55;3.50;;;1.08;;
52730;SDS011;38624;53.242;6.974;2022-09-27T09:55:56;3.75;;;0.80;;
52730;SDS011;38624;53.242;6.974;2022-09-27T09:58:38;3.20;;;0.70;;
52730;SDS011;38624;53.242;6.974;2022-09-27T10:01:29;2.20;;;0.60;;
52730;SDS011;38624;53.242;6.974;2022-09-27T10:03:59;2.15;;;0.50;;
52730;SDS011;38624;53.242;6.974;2022-09-27T10:06:25;3.03;;;0.70;;
52730;SDS011;38624;53.242;6.974;2022-09-27T10:08:53;3.50;;;0.75;;
52730;SDS011;38624;53.242;6.974;2022-09-27T10:11:27;2.47;;;0.70;;
52730;SDS011;38624;53.242;6.974;2022-09-27T10:14:07;0.93;;;0.63;;
52730;SDS011;38624;53.242;6.974;2022-09-27T10:16:36;1.88;;;0.50;;
52730;SDS011;38624;53.242;6.974;2022-09-27T10:19:06;1.75;;;0.50;;
52730;SDS011;38624;53.242;6.974;2022-09-27T10:21:33;1.58;;;0.82;;
52730;SDS011;38624;53.242;6.974;2022-09-27T10:24:16;2.63;;;0.60;;
52730;SDS011;38624;53.242;6.974;2022-09-27T10:26:44;2.20;;;0.50;;
52730;SDS011;38624;53.242;6.974;2022-09-27T10:31:40;2.38;;;0.80;;
52730;SDS011;38624;53.242;6.974;2022-09-27T10:37:02;2.45;;;0.60;;
52730;SDS011;38624;53.242;6.974;2022-09-27T10:39:31;1.55;;;0.47;;
52730;SDS011;38624;53.242;6.974;2022-09-27T10:41:57;1.02;;;0.55;;
52730;SDS011;38624;53.242;6.974;2022-09-27T10:44:24;1.27;;;0.50;;
52730;SDS011;38624;53.242;6.974;2022-09-27T10:47:06;1.83;;;0.50;;
52730;SDS011;38624;53.242;6.974;2022-09-27T10:49:35;2.25;;;0.52;;
52730;SDS011;38624;53.242;6.974;2022-09-27T10:54:36;1.85;;;0.50;;
52730;SDS011;38624;53.242;6.974;2022-09-27T10:59:50;1.92;;;0.60;;
52730;SDS011;38624;53.242;6.974;2022-09-27T11:02:19;1.15;;;0.50;;
52730;SDS011;38624;53.242;6.974;2022-09-27T11:05:09;2.75;;;0.38;;
52730;SDS011;38624;53.242;6.974;2022-09-27T11:07:45;1.27;;;0.40;;
52730;SDS011;38624;53.242;6.974;2022-09-27T11:10:27;2.95;;;0.70;;
52730;SDS011;38624;53.242;6.974;2022-09-27T11:15:50;4.38;;;0.70;;
52730;SDS011;38624;53.242;6.974;2022-09-27T11:18:51;1.48;;;0.50;;
52730;SDS011;38624;53.242;6.974;2022-09-27T11:32:38;2.13;;;0.73;;
52730;SDS011;38624;53.242;6.974;2022-09-27T11:35:28;3.22;;;0.75;;
52730;SDS011;38624;53.242;6.974;2022-09-27T11:40:29;4.03;;;1.00;;
52730;SDS011;38624;53.242;6.974;2022-09-27T11:43:29;2.55;;;0.90;;
52730;SDS011;38624;53.242;6.974;2022-09-27T11:49:05;1.38;;;0.52;;
52730;SDS011;38624;53.242;6.974;2022-09-27T12:00:27;0.57;;;0.43;;
52730;SDS011;38624;53.242;6.974;2022-09-27T12:05:46;0.73;;;0.30;;
52730;SDS011;38624;53.242;6.974;2022-09-27T12:11:28;0.85;;;0.50;;
52730;SDS011;38624;53.242;6.974;2022-09-27T12:14:03;2.05;;;0.60;;
52730;SDS011;38624;53.242;6.974;2022-09-27T12:16:51;1.48;;;0.43;;
52730;SDS011;38624;53.242;6.974;2022-09-27T12:19:23;0.88;;;0.50;;
52730;SDS011;38624;53.242;6.974;2022-09-27T12:21:57;1.48;;;0.50;;
52730;SDS011;38624;53.242;6.974;2022-09-27T12:24:28;3.83;;;0.50;;
52730;SDS011;38624;53.242;6.974;2022-09-27T12:26:54;2.33;;;0.70;;
52730;SDS011;38624;53.242;6.974;2022-09-27T12:29:29;3.90;;;0.73;;
52730;SDS011;38624;53.242;6.974;2022-09-27T12:32:00;2.75;;;0.68;;
52730;SDS011;38624;53.242;6.974;2022-09-27T12:35:07;2.75;;;0.75;;
52730;SDS011;38624;53.242;6.974;2022-09-27T12:37:56;3.40;;;0.70;;
52730;SDS011;38624;53.242;6.974;2022-09-27T12:40:31;1.20;;;0.40;;
52730;SDS011;38624;53.242;6.974;2022-09-27T12:43:05;1.20;;;0.50;;
52730;SDS011;38624;53.242;6.974;2022-09-27T12:45:54;3.10;;;0.50;;
52730;SDS011;38624;53.242;6.974;2022-09-27T12:51:34;1.75;;;0.35;;
52730;SDS011;38624;53.242;6.974;2022-09-27T12:59:02;0.43;;;0.27;;
52730;SDS011;38624;53.242;6.974;2022-09-27T13:01:56;1.33;;;0.40;;
52730;SDS011;38624;53.242;6.974;2022-09-27T13:04:31;2.67;;;0.52;;
52730;SDS011;38624;53.242;6.974;2022-09-27T13:07:25;2.25;;;0.52;;
52730;SDS011;38624;53.242;6.974;2022-09-27T13:12:57;0.75;;;0.30;;
52730;SDS011;38624;53.242;6.974;2022-09-27T13:15:26;2.47;;;0.47;;
52730;SDS011;38624;53.242;6.974;2022-09-27T13:17:56;4.32;;;0.63;;
52730;SDS011;38624;53.242;6.974;2022-09-27T13:22:55;2.70;;;0.43;;
52730;SDS011;38624;53.242;6.974;2022-09-27T13:31:04;0.47;;;0.20;;
52730;SDS011;38624;53.242;6.974;2022-09-27T13:36:15;1.65;;;0.50;;
52730;SDS011;38624;53.242;6.974;2022-09-27T13:38:51;2.30;;;0.50;;
52730;SDS011;38624;53.242;6.974;2022-09-27T13:41:25;1.08;;;0.40;;
52730;SDS011;38624;53.242;6.974;2022-09-27T13:46:29;2.03;;;0.30;;
52730;SDS011;38624;53.242;6.974;2022-09-27T13:48:58;0.90;;;0.32;;
52730;SDS011;38624;53.242;6.974;2022-09-27T14:00:06;1.80;;;0.50;;
52730;SDS011;38624;53.242;6.974;2022-09-27T14:03:06;3.50;;;0.40;;
52730;SDS011;38624;53.242;6.974;2022-09-27T14:05:57;0.75;;;0.30;;
52730;SDS011;38624;53.242;6.974;2022-09-27T14:10:59;3.15;;;0.40;;
52730;SDS011;38624;53.242;6.974;2022-09-27T14:13:27;2.92;;;0.57;;
52730;SDS011;38624;53.242;6.974;2022-09-27T14:15:56;1.42;;;0.50;;
52730;SDS011;38624;53.242;6.974;2022-09-27T14:18:23;1.55;;;0.70;;
52730;SDS011;38624;53.242;6.974;2022-09-27T14:20:50;1.13;;;0.60;;
52730;SDS011;38624;53.242;6.974;2022-09-27T14:23:19;2.25;;;0.50;;
52730;SDS011;38624;53.242;6.974;2022-09-27T14:25:47;0.73;;;0.40;;
52730;SDS011;38624;53.242;6.974;2022-09-27T14:28:25;1.80;;;0.47;;
52730;SDS011;38624;53.242;6.974;2022-09-27T14:33:40;2.58;;;0.50;;
52730;SDS011;38624;53.242;6.974;2022-09-27T14:36:07;2.07;;;0.67;;
52730;SDS011;38624;53.242;6.974;2022-09-27T14:39:00;1.83;;;0.57;;
52730;SDS011;38624;53.242;6.974;2022-09-27T14:41:26;1.00;;;0.40;;
52730;SDS011;38624;53.242;6.974;2022-09-27T14:43:59;2.97;;;0.70;;
52730;SDS011;38624;53.242;6.974;2022-09-27T14:46:26;1.60;;;0.50;;
52730;SDS011;38624;53.242;6.974;2022-09-27T14:48:54;1.55;;;0.45;;
52730;SDS011;38624;53.242;6.974;2022-09-27T14:51:24;1.45;;;0.57;;
52730;SDS011;38624;53.242;6.974;2022-09-27T14:53:53;0.82;;;0.40;;
52730;SDS011;38624;53.242;6.974;2022-09-27T14:56:29;1.85;;;0.63;;
52730;SDS011;38624;53.242;6.974;2022-09-27T14:59:02;1.48;;;0.40;;
52730;SDS011;38624;53.242;6.974;2022-09-27T15:01:35;1.88;;;0.50;;
52730;SDS011;38624;53.242;6.974;2022-09-27T15:04:04;1.55;;;0.50;;
52730;SDS011;38624;53.242;6.974;2022-09-27T15:06:32;0.70;;;0.40;;
52730;SDS011;38624;53.242;6.974;2022-09-27T15:09:01;0.90;;;0.57;;
52730;SDS011;38624;53.242;6.974;2022-09-27T15:11:29;1.27;;;0.60;;
52730;SDS011;38624;53.242;6.974;2022-09-27T15:13:57;1.85;;;0.60;;
52730;SDS011;38624;53.242;6.974;2022-09-27T15:16:26;1.50;;;0.52;;
52730;SDS011;38624;53.242;6.974;2022-09-27T15:19:02;3.43;;;0.63;;
52730;SDS011;38624;53.242;6.974;2022-09-27T15:21:37;1.75;;;0.43;;
52730;SDS011;38624;53.242;6.974;2022-09-27T15:24:03;1.23;;;0.60;;
52730;SDS011;38624;53.242;6.974;2022-09-27T15:29:01;2.00;;;0.52;;
52730;SDS011;38624;53.242;6.974;2022-09-27T15:31:34;2.17;;;0.68;;
52730;SDS011;38624;53.242;6.974;2022-09-27T15:34:01;1.27;;;0.60;;
52730;SDS011;38624;53.242;6.974;2022-09-27T15:36:52;0.95;;;0.47;;
52730;SDS011;38624;53.242;6.974;2022-09-27T15:39:35;0.85;;;0.50;;
52730;SDS011;38624;53.242;6.974;2022-09-27T15:44:44;4.78;;;0.70;;
52730;SDS011;38624;53.242;6.974;2022-09-27T15:52:48;1.38;;;0.68;;
52730;SDS011;38624;53.242;6.974;2022-09-27T15:55:17;2.55;;;0.90;;
52730;SDS011;38624;53.242;6.974;2022-09-27T15:57:44;2.67;;;0.93;;
52730;SDS011;38624;53.242;6.974;2022-09-27T16:00:16;1.25;;;0.75;;
52730;SDS011;38624;53.242;6.974;2022-09-27T16:02:43;2.13;;;0.88;;
52730;SDS011;38624;53.242;6.974;2022-09-27T16:05:10;2.60;;;0.75;;
52730;SDS011;38624;53.242;6.974;2022-09-27T16:07:36;1.75;;;0.80;;
52730;SDS011;38624;53.242;6.974;2022-09-27T16:12:38;2.67;;;0.80;;
52730;SDS011;38624;53.242;6.974;2022-09-27T16:15:04;1.23;;;0.70;;
52730;SDS011;38624;53.242;6.974;2022-09-27T16:17:30;2.00;;;1.00;;
52730;SDS011;38624;53.242;6.974;2022-09-27T16:19:56;1.15;;;0.63;;
52730;SDS011;38624;53.242;6.974;2022-09-27T16:22:22;3.20;;;0.73;;
52730;SDS011;38624;53.242;6.974;2022-09-27T16:24:48;1.23;;;0.80;;
52730;SDS011;38624;53.242;6.974;2022-09-27T16:27:24;1.60;;;0.75;;
52730;SDS011;38624;53.242;6.974;2022-09-27T16:29:51;2.58;;;0.90;;
52730;SDS011;38624;53.242;6.974;2022-09-27T16:32:18;1.48;;;0.68;;
52730;SDS011;38624;53.242;6.974;2022-09-27T16:34:44;1.13;;;0.80;;
52730;SDS011;38624;53.242;6.974;2022-09-27T16:37:09;3.22;;;0.90;;
52730;SDS011;38624;53.242;6.974;2022-09-27T16:39:35;3.22;;;1.00;;
52730;SDS011;38624;53.242;6.974;2022-09-27T16:42:01;1.02;;;0.80;;
52730;SDS011;38624;53.242;6.974;2022-09-27T16:44:31;3.92;;;0.93;;
52730;SDS011;38624;53.242;6.974;2022-09-27T16:47:00;1.33;;;0.70;;
52730;SDS011;38624;53.242;6.974;2022-09-27T16:49:26;3.17;;;1.00;;
52730;SDS011;38624;53.242;6.974;2022-09-27T16:52:10;3.75;;;1.17;;
52730;SDS011;38624;53.242;6.974;2022-09-27T16:54:36;2.90;;;0.90;;
52730;SDS011;38624;53.242;6.974;2022-09-27T16:57:01;4.10;;;1.00;;
52730;SDS011;38624;53.242;6.974;2022-09-27T16:59:27;2.42;;;0.88;;
52730;SDS011;38624;53.242;6.974;2022-09-27T17:01:53;3.28;;;1.00;;
52730;SDS011;38624;53.242;6.974;2022-09-27T17:04:22;3.33;;;1.10;;
52730;SDS011;38624;53.242;6.974;2022-09-27T17:06:49;1.73;;;0.80;;
52730;SDS011;38624;53.242;6.974;2022-09-27T17:09:15;2.95;;;0.90;;
52730;SDS011;38624;53.242;6.974;2022-09-27T17:11:41;2.75;;;0.90;;
52730;SDS011;38624;53.242;6.974;2022-09-27T17:14:08;3.45;;;0.80;;
52730;SDS011;38624;53.242;6.974;2022-09-27T17:16:44;2.65;;;0.85;;
52730;SDS011;38624;53.242;6.974;2022-09-27T17:19:11;2.65;;;0.90;;
52730;SDS011;38624;53.242;6.974;2022-09-27T17:21:37;2.40;;;0.80;;
52730;SDS011;38624;53.242;6.974;2022-09-27T17:24:03;3.20;;;0.80;;
52730;SDS011;38624;53.242;6.974;2022-09-27T17:26:29;3.15;;;1.23;;
52730;SDS011;38624;53.242;6.974;2022-09-27T17:28:56;3.50;;;0.70;;
52730;SDS011;38624;53.242;6.974;2022-09-27T17:31:25;2.88;;;0.85;;
52730;SDS011;38624;53.242;6.974;2022-09-27T17:33:51;3.85;;;1.00;;
52730;SDS011;38624;53.242;6.974;2022-09-27T17:36:21;1.73;;;0.85;;
52730;SDS011;38624;53.242;6.974;2022-09-27T17:38:49;1.75;;;0.80;;
52730;SDS011;38624;53.242;6.974;2022-09-27T17:41:17;2.40;;;0.80;;
52730;SDS011;38624;53.242;6.974;2022-09-27T17:43:45;3.53;;;1.02;;
52730;SDS011;38624;53.242;6.974;2022-09-27T17:46:15;2.72;;;0.93;;
52730;SDS011;38624;53.242;6.974;2022-09-27T17:48:42;5.25;;;1.13;;
52730;SDS011;38624;53.242;6.974;2022-09-27T17:51:26;4.45;;;1.30;;
52730;SDS011;38624;53.242;6.974;2022-09-27T17:53:53;2.85;;;0.90;;
52730;SDS011;38624;53.242;6.974;2022-09-27T17:56:19;5.07;;;0.98;;
52730;SDS011;38624;53.242;6.974;2022-09-27T17:58:47;2.70;;;0.93;;
52730;SDS011;38624;53.242;6.974;2022-09-27T18:01:14;3.58;;;0.90;;
52730;SDS011;38624;53.242;6.974;2022-09-27T18:03:41;3.33;;;0.82;;
52730;SDS011;38624;53.242;6.974;2022-09-27T18:06:07;2.47;;;0.77;;
52730;SDS011;38624;53.242;6.974;2022-09-27T18:08:34;4.53;;;0.95;;
52730;SDS011;38624;53.242;6.974;2022-09-27T18:11:08;2.40;;;0.80;;